Avalon Express — WDD7919 — position and weather

sailwx.info

Track history (hours):
 
Tides and Currents Weather Stations Pressure Air Temp Water Temp Dewpoint Dewpoint Depression Visibility Wind Speed Wind Dir Waves Ship Positions

Avalon Express

Owner: RGWT INC, San Pedro, CA. More information available from US FCC via Universal Licensing System and Coast Guard Vessel Documentation Center.

Last reported at 2016-May-26 14:06 UTC. Time now 2016-May-26 22:32 UTC.
Position N 33°45' W 118°16'.

Type: High speed craft. MMSI: 367192940.

Date/timePositionNaut miles runAvg speedWind from/ knotsBaromVisibWave heightAir tempDewpointWater temp
2016-May-26 14:06N 33°45' W 118°16'0 0.4
2016-May-26 13:25N 33°45' W 118°17'0 0.0
2016-May-26 02:25N 33°45' W 118°16'0 0.0
2016-May-25 22:09N 33°45' W 118°16'0 0.0
2016-May-25 20:25N 33°45' W 118°16'2 2.4
2016-May-25 19:29N 33°43' W 118°15'2 0.6
2016-May-25 15:32N 33°45' W 118°16'0 0.0
2016-May-25 14:22N 33°45' W 118°16'0 0.0
2016-May-25 13:33N 33°45' W 118°16'0 0.0
2016-May-25 12:33N 33°45' W 118°16'0 0.0
2016-May-25 02:23N 33°45' W 118°16'3 0.8
2016-May-24 22:33N 33°42' W 118°15'3 2.2
2016-May-24 21:14N 33°45' W 118°16'0 0.0
2016-May-24 20:33N 33°45' W 118°16'3 2.8
2016-May-24 19:31N 33°42' W 118°15'0 0.2
2016-May-24 16:19N 33°42' W 118°15'3 4.5
2016-May-24 15:34N 33°45' W 118°16'0 0.0
2016-May-24 14:32N 33°45' W 118°16'0 0.0
2016-May-24 13:34N 33°45' W 118°16'0 0.0
2016-May-24 12:34N 33°45' W 118°16'0 0.0
2016-May-23 04:09N 33°45' W 118°16'2 1.8
2016-May-23 03:13N 33°43' W 118°16'1624.0
2016-May-23 02:34N 33°28' W 118°17'10 4.6
2016-May-23 00:24N 33°37' W 118°18'7 5.9
2016-May-22 23:18N 33°44' W 118°16'1722.4
2016-May-22 22:34N 33°27' W 118°18'8 7.9
2016-May-22 21:31N 33°27' W 118°27'5 4.8
2016-May-22 20:33N 33°31' W 118°25'7 3.4
2016-May-22 18:28N 33°32' W 118°16'1213.0
2016-May-22 17:33N 33°21' W 118°19'11 0.8
2016-May-22 03:29N 33°31' W 118°17'1111.5
2016-May-22 02:33N 33°21' W 118°19'10 2.9
2016-May-21 23:10N 33°30' W 118°17'1016.0
2016-May-21 22:34N 33°21' W 118°19'12 7.9
2016-May-21 21:06N 33°31' W 118°25'7 2.2
2016-May-21 18:08N 33°30' W 118°17'1014.8
2016-May-21 17:29N 33°21' W 118°19'1 0.1
2016-May-21 04:34N 33°22' W 118°19'23 0.9
2016-May-20 03:14N 33°45' W 118°16'0 0.0
2016-May-20 02:33N 33°45' W 118°16'22 9.5
2016-May-20 00:14N 33°23' W 118°21'2211.4
2016-May-19 22:18N 33°45' W 118°16'0 0.1
2016-May-19 21:12N 33°45' W 118°16'0 0.0
2016-May-19 20:31N 33°45' W 118°16'1 0.9
2016-May-19 19:32N 33°44' W 118°16'6 2.0
2016-May-19 16:29N 33°38' W 118°16'7 7.4
2016-May-19 15:33N 33°45' W 118°16'0 0.0
2016-May-19 14:33N 33°45' W 118°16'0 0.0
2016-May-19 13:33N 33°45' W 118°16'0 0.0
2016-May-19 12:33N 33°45' W 118°16'0 0.0
2016-May-19 02:21N 33°45' W 118°16'0 0.0
2016-May-18 21:32N 33°45' W 118°16'0 0.0
2016-May-18 15:28N 33°45' W 118°16'0 0.0
2016-May-18 03:14N 33°45' W 118°16'0 0.0
2016-May-18 02:24N 33°45' W 118°16'2 0.2
2016-May-17 16:18N 33°43' W 118°16'2 2.6
2016-May-17 15:33N 33°45' W 118°16'0 0.0
2016-May-17 14:33N 33°45' W 118°16'0 0.0
2016-May-17 13:33N 33°45' W 118°16'0 0.0
2016-May-16 17:07N 33°45' W 118°17'0 0.3
2016-May-16 16:32N 33°45' W 118°16'0 0.0
2016-May-16 15:22N 33°45' W 118°16'0 0.0
2016-May-16 14:29N 33°45' W 118°16'  
Track history (hours):
 
Tides and Currents Weather Stations Pressure Air Temp Water Temp Dewpoint Dewpoint Depression Visibility Wind Speed Wind Dir Waves Ship Positions

Avalon Express

Owner: RGWT INC, San Pedro, CA. More information available from US FCC via Universal Licensing System and Coast Guard Vessel Documentation Center.

Last reported at 2016-May-26 14:06 UTC. Time now 2016-May-26 22:32 UTC.
Position N 33°45' W 118°16'.

Type: High speed craft. MMSI: 367192940.

Date/timePositionNaut miles runAvg speedWind from/ knotsBaromVisibWave heightAir tempDewpointWater temp
2016-May-26 14:06N 33°45' W 118°16'0 0.4
2016-May-26 13:25N 33°45' W 118°17'0 0.0
2016-May-26 02:25N 33°45' W 118°16'0 0.0
2016-May-25 22:09N 33°45' W 118°16'0 0.0
2016-May-25 20:25N 33°45' W 118°16'2 2.4
2016-May-25 19:29N 33°43' W 118°15'2 0.6
2016-May-25 15:32N 33°45' W 118°16'0 0.0
2016-May-25 14:22N 33°45' W 118°16'0 0.0
2016-May-25 13:33N 33°45' W 118°16'0 0.0
2016-May-25 12:33N 33°45' W 118°16'0 0.0
2016-May-25 02:23N 33°45' W 118°16'3 0.8
2016-May-24 22:33N 33°42' W 118°15'3 2.2
2016-May-24 21:14N 33°45' W 118°16'0 0.0
2016-May-24 20:33N 33°45' W 118°16'3 2.8
2016-May-24 19:31N 33°42' W 118°15'0 0.2
2016-May-24 16:19N 33°42' W 118°15'3 4.5
2016-May-24 15:34N 33°45' W 118°16'0 0.0
2016-May-24 14:32N 33°45' W 118°16'0 0.0
2016-May-24 13:34N 33°45' W 118°16'0 0.0
2016-May-24 12:34N 33°45' W 118°16'0 0.0
2016-May-23 04:09N 33°45' W 118°16'2 1.8
2016-May-23 03:13N 33°43' W 118°16'1624.0
2016-May-23 02:34N 33°28' W 118°17'10 4.6
2016-May-23 00:24N 33°37' W 118°18'7 5.9
2016-May-22 23:18N 33°44' W 118°16'1722.4
2016-May-22 22:34N 33°27' W 118°18'8 7.9
2016-May-22 21:31N 33°27' W 118°27'5 4.8
2016-May-22 20:33N 33°31' W 118°25'7 3.4
2016-May-22 18:28N 33°32' W 118°16'1213.0
2016-May-22 17:33N 33°21' W 118°19'11 0.8
2016-May-22 03:29N 33°31' W 118°17'1111.5
2016-May-22 02:33N 33°21' W 118°19'10 2.9
2016-May-21 23:10N 33°30' W 118°17'1016.0
2016-May-21 22:34N 33°21' W 118°19'12 7.9
2016-May-21 21:06N 33°31' W 118°25'7 2.2
2016-May-21 18:08N 33°30' W 118°17'1014.8
2016-May-21 17:29N 33°21' W 118°19'1 0.1
2016-May-21 04:34N 33°22' W 118°19'23 0.9
2016-May-20 03:14N 33°45' W 118°16'0 0.0
2016-May-20 02:33N 33°45' W 118°16'22 9.5
2016-May-20 00:14N 33°23' W 118°21'2211.4
2016-May-19 22:18N 33°45' W 118°16'0 0.1
2016-May-19 21:12N 33°45' W 118°16'0 0.0
2016-May-19 20:31N 33°45' W 118°16'1 0.9
2016-May-19 19:32N 33°44' W 118°16'6 2.0
2016-May-19 16:29N 33°38' W 118°16'7 7.4
2016-May-19 15:33N 33°45' W 118°16'0 0.0
2016-May-19 14:33N 33°45' W 118°16'0 0.0
2016-May-19 13:33N 33°45' W 118°16'0 0.0
2016-May-19 12:33N 33°45' W 118°16'0 0.0
2016-May-19 02:21N 33°45' W 118°16'0 0.0
2016-May-18 21:32N 33°45' W 118°16'0 0.0
2016-May-18 15:28N 33°45' W 118°16'0 0.0
2016-May-18 03:14N 33°45' W 118°16'0 0.0
2016-May-18 02:24N 33°45' W 118°16'2 0.2
2016-May-17 16:18N 33°43' W 118°16'2 2.6
2016-May-17 15:33N 33°45' W 118°16'0 0.0
2016-May-17 14:33N 33°45' W 118°16'0 0.0
2016-May-17 13:33N 33°45' W 118°16'0 0.0
2016-May-16 17:07N 33°45' W 118°17'0 0.3
2016-May-16 16:32N 33°45' W 118°16'0 0.0
2016-May-16 15:22N 33°45' W 118°16'0 0.0
2016-May-16 14:29N 33°45' W 118°16'  

Dump ship's entire track history